UDPNC weather

Aviosuperficie Piancada
Palazzolo della Stella (UD), Friuli-Venezia Giulia, Italy

Public forecast

Using degrees Celsius for public forecast. Weather courtesy of forecast.io.

Closest aviation weather report (METAR) to Aviosuperficie Piancada

Report is more than 6 hours old.

Closest report is Rivolto Air Base, 12.9 nm (23.9 km) N. Retrieved 2020/08/07 09:55 UTC (22 hours ago):

LIPI 070955Z 32006KT CAVOK 30/12 Q1018 RMK SKC VIS MIN 9999 WIND THR06 01007KT WIND THR24 36005KT BLU

Closest aviation forecast (TAF) to Aviosuperficie Piancada

Forecast is more than 12 hours old.

Closest forecast is Rivolto Air Base, 12.9 nm (23.9 km) N. Retrieved 2020/01/23 12:24 UTC (7 months ago):

TAF TAF LIPI 231100Z 2312/2324 06010KT CAVOK